Time;durP1;ratioP1;P1;durP2;ratioP2;P2;SDS_P1;SDS_P2;PMS_P1;PMS_P2;Temp;Humidity;BMP_temperature;BMP_pressure;BME280_temperature;BME280_humidity;BME280_pressure;Samples;Min_cycle;Max_cycle;Signal;HPM_P1;HPM_P2
2021/04/19 00:00:28;;;;;;;8.73;5.77;;;3.90;99.90;;;;;;5032414;28;20228;-80
2021/04/19 00:02:55;;;;;;;11.07;6.27;;;3.90;99.90;;;;;;5032398;28;20283;-80
2021/04/19 00:05:21;;;;;;;8.77;6.03;;;3.80;99.90;;;;;;5034081;28;20585;-80
2021/04/19 00:07:49;;;;;;;10.03;5.77;;;3.90;99.90;;;;;;5033708;28;20254;-80
2021/04/19 00:10:17;;;;;;;8.60;5.57;;;3.80;99.90;;;;;;5029032;28;20565;-80
2021/04/19 00:12:44;;;;;;;8.03;5.00;;;3.80;99.90;;;;;;5013610;28;20239;-79
2021/04/19 00:15:13;;;;;;;9.53;5.73;;;3.80;99.90;;;;;;5033448;28;20242;-80
2021/04/19 00:17:39;;;;;;;11.50;6.53;;;3.70;99.90;;;;;;5034111;28;20294;-80
2021/04/19 00:20:07;;;;;;;9.40;6.30;;;3.70;99.90;;;;;;5033649;28;20232;-79
2021/04/19 00:22:34;;;;;;;8.87;6.23;;;3.60;99.90;;;;;;5032008;28;20231;-80
2021/04/19 00:25:03;;;;;;;10.33;6.03;;;3.60;99.90;;;;;;5013935;28;20213;-80
2021/04/19 00:27:29;;;;;;;9.57;6.30;;;3.60;99.90;;;;;;5013880;28;20239;-79
2021/04/19 00:29:56;;;;;;;8.70;5.90;;;3.50;99.90;;;;;;5018186;28;20231;-79
2021/04/19 00:32:22;;;;;;;8.47;5.70;;;3.50;99.90;;;;;;5033315;28;20244;-80
2021/04/19 00:34:49;;;;;;;12.03;5.83;;;3.40;99.90;;;;;;5024351;28;20216;-80
2021/04/19 00:37:15;;;;;;;8.63;5.73;;;3.40;99.90;;;;;;5013841;28;20201;-80
2021/04/19 00:39:42;;;;;;;8.33;5.20;;;3.40;99.90;;;;;;5012969;28;20240;-79
2021/04/19 00:42:10;;;;;;;9.13;5.77;;;3.30;99.90;;;;;;5020668;28;20287;-80
2021/04/19 00:44:36;;;;;;;7.67;5.63;;;3.30;99.90;;;;;;5028057;28;20235;-80
2021/04/19 00:47:02;;;;;;;8.70;5.63;;;3.30;99.90;;;;;;5024490;28;20748;-79
2021/04/19 00:49:29;;;;;;;10.60;5.30;;;3.20;99.90;;;;;;5013116;28;20232;-80
2021/04/19 00:51:56;;;;;;;7.87;5.63;;;3.20;99.90;;;;;;5013369;28;20284;-81
2021/04/19 00:54:23;;;;;;;8.70;5.73;;;3.20;99.90;;;;;;5013402;28;20287;-81
2021/04/19 00:56:51;;;;;;;9.17;5.53;;;3.10;99.90;;;;;;5018325;28;20224;-80
2021/04/19 00:59:20;;;;;;;8.60;5.63;;;3.20;99.90;;;;;;5013189;28;20211;-80
2021/04/19 01:01:47;;;;;;;7.90;5.63;;;3.20;99.90;;;;;;5017001;28;20680;-79
2021/04/19 01:04:14;;;;;;;8.60;5.67;;;3.10;99.90;;;;;;5030406;28;20286;-79
2021/04/19 01:06:40;;;;;;;9.03;5.43;;;3.10;99.90;;;;;;5012944;28;20610;-80
2021/04/19 01:09:08;;;;;;;9.03;5.50;;;3.10;99.90;;;;;;5013411;28;20208;-80
2021/04/19 01:11:35;;;;;;;8.83;5.57;;;3.10;99.90;;;;;;5012748;28;20310;-79
2021/04/19 01:14:02;;;;;;;12.73;5.60;;;3.10;99.90;;;;;;5013214;28;20265;-81
2021/04/19 01:16:30;;;;;;;7.90;5.33;;;3.20;99.90;;;;;;5013100;28;20286;-81
2021/04/19 01:18:56;;;;;;;9.40;5.20;;;3.10;99.90;;;;;;5013008;28;20227;-81
2021/04/19 01:21:24;;;;;;;10.10;5.03;;;3.10;99.90;;;;;;5027857;28;20242;-81
2021/04/19 01:23:50;;;;;;;9.47;5.17;;;3.10;99.90;;;;;;5019166;28;20702;-81
2021/04/19 01:26:17;;;;;;;7.67;4.60;;;3.10;99.90;;;;;;5012779;28;20234;-81
2021/04/19 01:28:43;;;;;;;7.00;4.47;;;3.10;99.90;;;;;;5012569;28;20242;-81
2021/04/19 01:31:10;;;;;;;7.00;4.60;;;3.10;99.90;;;;;;5016790;28;20226;-80
2021/04/19 01:33:36;;;;;;;8.17;4.97;;;3.10;99.90;;;;;;5018340;28;20735;-81
2021/04/19 01:36:03;;;;;;;6.77;4.17;;;3.20;99.90;;;;;;5030809;28;20286;-79
2021/04/19 01:38:30;;;;;;;6.40;4.37;;;3.20;99.90;;;;;;5013918;28;20883;-80
2021/04/19 01:40:57;;;;;;;7.03;4.27;;;3.10;99.90;;;;;;5012172;28;20207;-81
2021/04/19 01:43:24;;;;;;;7.30;4.40;;;3.10;99.90;;;;;;5012520;28;20282;-81
2021/04/19 01:45:51;;;;;;;7.23;4.57;;;3.10;99.90;;;;;;5030861;28;20295;-81
2021/04/19 01:48:20;;;;;;;6.63;4.50;;;3.10;99.90;;;;;;5018039;28;20258;-81
2021/04/19 01:50:48;;;;;;;7.20;4.53;;;3.00;99.90;;;;;;5031226;28;20352;-82
2021/04/19 01:53:15;;;;;;;7.23;4.53;;;3.10;99.90;;;;;;5015480;28;20238;-81
2021/04/19 01:55:43;;;;;;;7.43;4.50;;;3.00;99.90;;;;;;5019937;28;20621;-80
2021/04/19 01:58:12;;;;;;;8.43;4.60;;;2.90;99.90;;;;;;5012397;28;20289;-81
2021/04/19 02:00:41;;;;;;;8.03;4.23;;;2.90;99.90;;;;;;5012547;28;20199;-81
2021/04/19 02:03:38;;;;;;;9.23;5.13;;;3.00;99.90;;;;;;5032156;28;20201;-81
2021/04/19 02:06:09;;;;;;;8.17;4.70;;;2.90;99.90;;;;;;5007934;28;20226;-81
2021/04/19 02:08:46;;;;;;;7.17;4.20;;;3.00;99.90;;;;;;5012338;28;20733;-81
2021/04/19 02:11:25;;;;;;;5.90;4.13;;;2.90;99.90;;;;;;5012034;28;20313;-81
2021/04/19 02:13:58;;;;;;;5.93;4.40;;;2.90;99.90;;;;;;5024685;28;20604;-81
2021/04/19 02:16:33;;;;;;;7.93;4.20;;;2.90;99.90;;;;;;5031954;28;20701;-81
2021/04/19 02:19:05;;;;;;;6.33;4.27;;;3.00;99.90;;;;;;5031626;28;20218;-80
2021/04/19 02:21:40;;;;;;;6.33;4.40;;;3.00;99.90;;;;;;5031900;28;20517;-81
2021/04/19 02:24:10;;;;;;;6.17;3.97;;;3.00;99.90;;;;;;5030923;28;20227;-81
2021/04/19 02:26:44;;;;;;;6.50;4.20;;;2.90;99.90;;;;;;5031958;28;20684;-82
2021/04/19 02:29:13;;;;;;;6.37;4.00;;;2.80;99.90;;;;;;5012508;28;20233;-81
2021/04/19 02:31:44;;;;;;;6.03;4.00;;;2.70;99.90;;;;;;5011609;28;20745;-81
2021/04/19 02:34:15;;;;;;;6.07;4.20;;;2.70;99.90;;;;;;5018798;28;20209;-81
2021/04/19 02:36:42;;;;;;;6.80;4.07;;;2.60;99.90;;;;;;5028791;28;20248;-81
2021/04/19 02:39:09;;;;;;;6.07;4.37;;;2.50;99.90;;;;;;5021069;28;20244;-81
2021/04/19 02:41:36;;;;;;;7.87;4.13;;;2.50;99.90;;;;;;5011777;28;20702;-80
2021/04/19 02:44:07;;;;;;;6.17;4.20;;;2.40;99.90;;;;;;5011745;28;20248;-81
2021/04/19 02:46:34;;;;;;;6.13;4.27;;;2.50;99.90;;;;;;5023903;28;20293;-81
2021/04/19 02:49:01;;;;;;;6.03;4.00;;;2.40;99.90;;;;;;5023464;28;20205;-81
2021/04/19 02:51:29;;;;;;;6.23;4.63;;;2.30;99.90;;;;;;5014386;28;20309;-81
2021/04/19 02:53:57;;;;;;;7.30;4.70;;;2.30;99.90;;;;;;5031394;28;20190;-82
2021/04/19 02:56:24;;;;;;;7.50;4.73;;;2.30;99.90;;;;;;5030855;28;20821;-80
2021/04/19 02:58:55;;;;;;;6.80;4.87;;;2.20;99.90;;;;;;5031789;28;20235;-80
2021/04/19 03:01:25;;;;;;;6.33;4.83;;;2.20;99.90;;;;;;5013823;28;20572;-81
2021/04/19 03:03:55;;;;;;;8.00;5.17;;;2.20;99.90;;;;;;5020229;28;20664;-81
2021/04/19 03:06:23;;;;;;;8.07;4.87;;;2.20;99.90;;;;;;5032234;28;20205;-80
2021/04/19 03:08:51;;;;;;;8.27;4.93;;;2.00;99.90;;;;;;5028822;28;20224;-81
2021/04/19 03:11:21;;;;;;;8.00;4.70;;;2.00;99.90;;;;;;5018185;28;20254;-81
2021/04/19 03:13:49;;;;;;;7.67;5.17;;;2.00;99.90;;;;;;5030876;28;20792;-81
2021/04/19 03:16:16;;;;;;;5.73;4.67;;;1.90;99.90;;;;;;5035105;28;20234;-80
2021/04/19 03:18:45;;;;;;;7.17;4.60;;;1.90;99.90;;;;;;5025552;28;20236;-81
2021/04/19 03:21:15;;;;;;;8.13;5.10;;;1.90;99.90;;;;;;5034404;28;20204;-80
2021/04/19 03:23:44;;;;;;;7.23;4.50;;;1.90;99.90;;;;;;5034803;28;20250;-81
2021/04/19 03:26:13;;;;;;;7.80;4.60;;;1.80;99.90;;;;;;5028707;28;20329;-82
2021/04/19 03:28:40;;;;;;;7.30;5.00;;;1.80;99.90;;;;;;5023197;28;20627;-81
2021/04/19 03:31:11;;;;;;;8.13;4.63;;;1.80;99.90;;;;;;5021630;28;20739;-81
2021/04/19 03:33:40;;;;;;;7.37;4.77;;;1.70;99.90;;;;;;5026571;28;20263;-81
2021/04/19 03:36:12;;;;;;;9.80;5.03;;;1.70;99.90;;;;;;5034988;28;20205;-81
2021/04/19 03:38:39;;;;;;;6.97;4.20;;;1.70;99.90;;;;;;5034774;28;20328;-79
2021/04/19 03:41:07;;;;;;;8.37;5.30;;;1.70;99.90;;;;;;5034853;28;20622;-80
2021/04/19 03:43:35;;;;;;;8.07;4.67;;;1.60;99.90;;;;;;5018795;28;20244;-81
2021/04/19 03:46:04;;;;;;;9.40;4.53;;;1.60;99.90;;;;;;5014805;28;20233;-79
2021/04/19 03:48:32;;;;;;;9.63;4.77;;;1.50;99.90;;;;;;5014623;28;20271;-80
2021/04/19 03:51:02;;;;;;;6.07;4.40;;;1.50;99.90;;;;;;5014900;28;20256;-81
2021/04/19 03:53:31;;;;;;;6.43;4.40;;;1.50;99.90;;;;;;5020694;28;20236;-81
2021/04/19 03:56:00;;;;;;;7.37;4.10;;;1.50;99.90;;;;;;5026282;28;20225;-81
2021/04/19 03:58:29;;;;;;;8.03;4.57;;;1.50;99.90;;;;;;5034662;28;20204;-81
2021/04/19 04:00:58;;;;;;;8.33;4.67;;;1.50;99.90;;;;;;5033844;28;20224;-81
2021/04/19 04:03:26;;;;;;;7.93;4.43;;;1.50;99.90;;;;;;5034564;28;20258;-82
2021/04/19 04:05:53;;;;;;;6.23;4.20;;;1.40;99.90;;;;;;5015204;28;20229;-79
2021/04/19 04:08:20;;;;;;;9.33;4.43;;;1.40;99.90;;;;;;5014565;28;20280;-80
2021/04/19 04:10:50;;;;;;;7.30;4.63;;;1.40;99.90;;;;;;5014494;28;20657;-80
2021/04/19 04:13:18;;;;;;;6.77;4.57;;;1.40;99.90;;;;;;5025942;28;20708;-80
2021/04/19 04:15:52;;;;;;;7.10;4.53;;;1.40;99.90;;;;;;5033089;28;20284;-81
2021/04/19 04:18:19;;;;;;;6.87;3.97;;;1.40;99.90;;;;;;5033683;28;20200;-81
2021/04/19 04:20:47;;;;;;;6.43;4.40;;;1.30;99.90;;;;;;5016016;28;20200;-80
2021/04/19 04:23:14;;;;;;;7.37;4.40;;;1.40;99.90;;;;;;5025956;28;20236;-82
2021/04/19 04:25:41;;;;;;;6.43;4.17;;;1.40;99.90;;;;;;5015581;28;20277;-79
2021/04/19 04:28:09;;;;;;;5.40;3.93;;;1.40;99.90;;;;;;5021874;28;20304;-81
2021/04/19 04:30:36;;;;;;;7.10;4.00;;;1.50;99.90;;;;;;5020736;28;20261;-80
2021/04/19 04:33:03;;;;;;;7.53;4.40;;;1.50;99.90;;;;;;5025794;28;20207;-82
2021/04/19 04:35:29;;;;;;;6.73;4.07;;;1.50;99.90;;;;;;5027939;28;20226;-81
2021/04/19 04:37:57;;;;;;;6.70;4.37;;;1.50;99.90;;;;;;5031103;28;20368;-81
2021/04/19 04:40:24;;;;;;;8.30;4.50;;;1.50;99.90;;;;;;5032747;28;20204;-80
2021/04/19 04:42:54;;;;;;;6.57;4.27;;;1.40;99.90;;;;;;5021888;28;20241;-81
2021/04/19 04:45:23;;;;;;;6.03;4.33;;;1.40;99.90;;;;;;5013269;28;20566;-80
2021/04/19 04:47:56;;;;;;;8.80;3.83;;;1.30;99.90;;;;;;5013845;28;20281;-81
2021/04/19 04:50:27;;;;;;;6.77;3.93;;;1.30;99.90;;;;;;5013646;28;20201;-80
2021/04/19 04:52:58;;;;;;;11.10;4.50;;;1.20;99.90;;;;;;5013315;28;20229;-81
2021/04/19 04:55:25;;;;;;;6.20;4.27;;;1.20;99.90;;;;;;5021913;28;20291;-80
2021/04/19 04:57:52;;;;;;;6.63;4.40;;;1.20;99.90;;;;;;5022137;28;20284;-80
2021/04/19 05:00:21;;;;;;;6.73;4.07;;;1.10;99.90;;;;;;5012761;28;20674;-79
2021/04/19 05:02:55;;;;;;;6.97;4.40;;;1.20;99.90;;;;;;5018948;28;20737;-78
2021/04/19 05:05:21;;;;;;;7.97;4.57;;;1.20;99.90;;;;;;5015536;28;20248;-79
2021/04/19 05:07:49;;;;;;;7.60;4.40;;;1.10;99.90;;;;;;5033072;28;20239;-79
2021/04/19 05:10:15;;;;;;;6.83;4.70;;;1.10;99.90;;;;;;5025356;28;20215;-79
2021/04/19 05:12:42;;;;;;;6.10;4.23;;;1.20;99.90;;;;;;5019917;28;20323;-80
2021/04/19 05:15:13;;;;;;;6.83;4.40;;;1.30;99.90;;;;;;5032559;28;20201;-79
2021/04/19 05:17:40;;;;;;;7.20;4.33;;;1.30;99.90;;;;;;5025919;28;20220;-79
2021/04/19 05:20:09;;;;;;;5.37;4.33;;;1.30;99.90;;;;;;5032840;28;20292;-80
2021/04/19 05:22:36;;;;;;;5.30;4.10;;;1.40;99.90;;;;;;5026473;28;20286;-78
2021/04/19 05:25:03;;;;;;;7.73;4.93;;;1.40;99.90;;;;;;5025346;28;20236;-78
2021/04/19 05:27:31;;;;;;;6.87;4.60;;;1.40;99.90;;;;;;5015217;28;20201;-78
2021/04/19 05:29:57;;;;;;;8.87;4.70;;;1.50;99.90;;;;;;5012848;28;20227;-79
2021/04/19 05:32:24;;;;;;;6.23;4.33;;;1.50;99.90;;;;;;5024278;28;20313;-78
2021/04/19 05:34:51;;;;;;;6.40;4.20;;;1.60;99.90;;;;;;5012708;28;20205;-78
2021/04/19 05:37:19;;;;;;;6.93;4.33;;;1.60;99.90;;;;;;5012996;28;20270;-79
2021/04/19 05:39:46;;;;;;;7.23;4.63;;;1.60;99.90;;;;;;5012270;28;20232;-79
2021/04/19 05:42:14;;;;;;;6.87;4.63;;;1.70;99.90;;;;;;5030960;28;20281;-78
2021/04/19 05:44:42;;;;;;;9.13;4.73;;;1.80;99.90;;;;;;5025520;28;20335;-79
2021/04/19 05:47:10;;;;;;;6.67;4.20;;;1.80;99.90;;;;;;5010299;28;20209;-79
2021/04/19 05:49:36;;;;;;;9.37;4.70;;;1.90;99.90;;;;;;5015071;28;20750;-80
2021/04/19 05:52:06;;;;;;;8.77;4.60;;;2.00;99.90;;;;;;5013613;28;20833;-79
2021/04/19 05:54:34;;;;;;;6.80;4.40;;;2.20;99.90;;;;;;5027239;28;20202;-79
2021/04/19 05:57:09;;;;;;;6.30;4.30;;;2.60;99.90;;;;;;5010736;28;20210;-79
2021/04/19 06:00:01;;;;;;;7.17;4.10;;;3.10;99.90;;;;;;5031108;28;20214;-78
2021/04/19 06:02:34;;;;;;;5.73;4.17;;;3.50;99.90;;;;;;5010608;28;20198;-79
2021/04/19 06:05:04;;;;;;;8.13;3.93;;;4.10;99.90;;;;;;5006279;28;20303;-78
2021/04/19 06:07:46;;;;;;;5.83;3.80;;;4.70;99.90;;;;;;5013790;28;20201;-79
2021/04/19 06:10:17;;;;;;;9.10;4.43;;;5.10;99.90;;;;;;5010085;28;20377;-79
2021/04/19 06:12:48;;;;;;;6.90;3.87;;;5.40;99.90;;;;;;5018977;28;20360;-79
2021/04/19 06:15:16;;;;;;;8.07;3.90;;;5.60;99.90;;;;;;5014384;28;20208;-79
2021/04/19 06:17:45;;;;;;;5.60;3.70;;;6.20;99.90;;;;;;5012021;28;20232;-79
2021/04/19 06:20:14;;;;;;;7.73;3.53;;;6.80;99.90;;;;;;5012309;28;20280;-79
2021/04/19 06:22:41;;;;;;;5.00;3.57;;;7.50;99.90;;;;;;5026225;28;20216;-79
2021/04/19 06:25:11;;;;;;;5.40;3.70;;;7.90;99.90;;;;;;5031776;28;20251;-78
2021/04/19 06:27:40;;;;;;;6.57;3.67;;;8.20;99.90;;;;;;5022525;28;20207;-79
2021/04/19 06:30:16;;;;;;;9.40;4.20;;;8.70;99.90;;;;;;5022726;28;20261;-79
2021/04/19 06:32:44;;;;;;;7.90;3.90;;;9.10;99.90;;;;;;5019921;28;20269;-79
2021/04/19 06:35:12;;;;;;;4.63;3.37;;;9.40;99.90;;;;;;5025974;28;20237;-79
2021/04/19 06:37:38;;;;;;;6.90;3.40;;;9.60;99.90;;;;;;5015221;28;20237;-79
2021/04/19 06:40:06;;;;;;;5.13;3.40;;;10.30;99.90;;;;;;5015392;28;20232;-80
2021/04/19 06:42:33;;;;;;;5.73;3.60;;;10.00;99.90;;;;;;5015365;28;20671;-80
2021/04/19 06:45:01;;;;;;;6.50;3.60;;;10.50;99.90;;;;;;5015804;28;20322;-80
2021/04/19 06:47:29;;;;;;;4.90;3.50;;;10.80;99.90;;;;;;5019240;28;20692;-80
2021/04/19 06:49:57;;;;;;;5.87;3.93;;;11.60;99.90;;;;;;5022752;28;20211;-79
2021/04/19 06:52:24;;;;;;;5.13;3.40;;;11.70;99.90;;;;;;5023344;28;20219;-80
2021/04/19 06:54:51;;;;;;;6.30;3.80;;;11.60;99.90;;;;;;5024982;28;20288;-79
2021/04/19 06:57:20;;;;;;;6.10;3.50;;;12.30;99.90;;;;;;5028240;28;20236;-79
2021/04/19 06:59:47;;;;;;;4.23;3.53;;;12.30;99.90;;;;;;5023947;28;20270;-79
2021/04/19 07:02:20;;;;;;;4.57;3.33;;;12.80;99.90;;;;;;5024314;28;20693;-80
2021/04/19 07:04:50;;;;;;;6.90;3.80;;;12.90;99.90;;;;;;5031818;28;20200;-80
2021/04/19 07:07:23;;;;;;;6.37;4.20;;;13.00;99.90;;;;;;5034818;28;20358;-80
2021/04/19 07:09:51;;;;;;;5.30;3.60;;;13.50;99.90;;;;;;5033439;28;20224;-80
2021/04/19 07:12:21;;;;;;;7.63;4.03;;;13.80;99.90;;;;;;5026034;28;20333;-80
2021/04/19 07:14:50;;;;;;;9.93;4.57;;;13.70;99.90;;;;;;5009154;28;20197;-80
2021/04/19 07:17:17;;;;;;;9.83;5.23;;;13.80;99.90;;;;;;5026551;28;20208;-80
2021/04/19 07:19:44;;;;;;;8.17;4.97;;;14.40;99.90;;;;;;5021722;28;20291;-81
2021/04/19 07:22:11;;;;;;;11.07;4.80;;;15.10;99.90;;;;;;5009423;28;20201;-81
2021/04/19 07:24:38;;;;;;;8.73;5.07;;;14.70;99.90;;;;;;5024024;28;20284;-81
2021/04/19 07:27:06;;;;;;;7.03;4.87;;;15.30;99.90;;;;;;5028124;28;20291;-81
2021/04/19 07:29:33;;;;;;;10.35;5.60;;;15.80;99.90;;;;;;5018059;28;20243;-80
2021/04/19 07:31:59;;;;;;;8.60;5.20;;;15.80;99.90;;;;;;5024787;28;20307;-81
2021/04/19 07:34:28;;;;;;;12.65;5.93;;;15.60;99.90;;;;;;5024400;28;20606;-81
2021/04/19 07:36:57;;;;;;;8.50;5.10;;;16.10;99.90;;;;;;5018519;28;20243;-81
2021/04/19 07:39:26;;;;;;;5.82;4.80;;;16.50;99.90;;;;;;5016535;28;20255;-82
2021/04/19 07:41:54;;;;;;;10.63;5.47;;;16.40;99.90;;;;;;5035937;28;20323;-81
2021/04/19 07:44:39;;;;;;;10.40;6.00;;;16.40;99.90;;;;;;5016077;28;20206;-81
2021/04/19 07:47:35;;;;;;;9.23;5.90;;;16.10;99.90;;;;;;5021645;28;20236;-81
2021/04/19 07:50:13;;;;;;;7.90;5.70;;;16.30;99.90;;;;;;4923651;29;20219;-81
2021/04/19 07:52:59;;;;;;;9.13;5.97;;;16.20;99.90;;;;;;4922864;29;20234;-81
2021/04/19 07:55:35;;;;;;;7.90;5.68;;;16.10;99.90;;;;;;4919525;29;20215;-81
2021/04/19 07:58:02;;;;;;;7.15;5.95;;;16.60;99.90;;;;;;4920760;29;20251;-80
2021/04/19 08:00:53;;;;;;;8.68;6.10;;;16.40;99.90;;;;;;4917213;29;20218;-81
2021/04/19 08:03:20;;;;;;;6.82;5.95;;;16.00;99.90;;;;;;4923580;29;20211;-81
2021/04/19 08:05:49;;;;;;;11.15;5.95;;;16.60;99.90;;;;;;4920766;29;20590;-81
2021/04/19 08:08:17;;;;;;;9.57;6.20;;;16.90;99.90;;;;;;4922305;29;20192;-81
2021/04/19 08:10:45;;;;;;;9.88;5.88;;;17.60;99.90;;;;;;4919078;29;20239;-81
2021/04/19 08:13:17;;;;;;;8.43;6.03;;;17.50;99.90;;;;;;4928344;29;20271;-82
2021/04/19 08:16:41;;;;;;;;;;;;;;;;;;;;;
2021/04/19 08:19:08;;;;;;;10.00;7.00;;;18.70;99.90;;;;;;4885369;29;20210;-81
2021/04/19 08:26:06;;;;;;;13.02;8.10;;;19.20;99.90;;;;;;4943472;28;20236;-82
2021/04/19 08:28:42;;;;;;;11.18;8.88;;;18.90;99.90;;;;;;5014061;28;20886;-82
2021/04/19 08:31:09;;;;;;;10.75;9.45;;;19.20;99.90;;;;;;5017774;28;20239;-82
2021/04/19 08:33:36;;;;;;;13.23;10.48;;;17.40;99.90;;;;;;5013527;28;20212;-81
2021/04/19 08:36:06;;;;;;;11.82;9.43;;;16.70;99.90;;;;;;5013483;28;20209;-81
2021/04/19 08:38:33;;;;;;;11.23;9.68;;;16.30;99.90;;;;;;5015243;28;20731;-82
2021/04/19 08:41:05;;;;;;;13.32;9.55;;;16.00;99.90;;;;;;5024713;28;20282;-81
2021/04/19 08:43:34;;;;;;;12.25;9.57;;;17.10;99.90;;;;;;5023567;28;20208;-81
2021/04/19 08:46:01;;;;;;;13.13;9.95;;;17.50;99.90;;;;;;5022717;28;20208;-81
2021/04/19 08:48:28;;;;;;;12.68;10.15;;;17.40;99.90;;;;;;5028794;28;20188;-80
2021/04/19 08:50:59;;;;;;;14.05;10.18;;;19.10;99.90;;;;;;4999348;28;20346;-85
2021/04/19 08:53:28;;;;;;;13.45;9.52;;;18.60;99.90;;;;;;5024712;28;20238;-82
2021/04/19 08:55:56;;;;;;;13.32;10.27;;;18.60;99.90;;;;;;5025436;28;20201;-81
2021/04/19 08:58:24;;;;;;;15.10;10.55;;;17.90;99.90;;;;;;5017859;28;20205;-82
2021/04/19 09:01:00;;;;;;;11.57;10.25;;;17.80;99.90;;;;;;5020687;28;20294;-81
2021/04/19 09:03:27;;;;;;;11.98;9.93;;;17.10;99.90;;;;;;5013813;28;20743;-81
2021/04/19 09:05:58;;;;;;;11.10;8.85;;;17.90;99.90;;;;;;5024035;28;20285;-81
2021/04/19 09:08:24;;;;;;;13.13;9.80;;;17.50;99.90;;;;;;5024199;28;20334;-81
2021/04/19 09:10:56;;;;;;;14.25;10.18;;;18.40;99.90;;;;;;5022848;28;20209;-81
2021/04/19 09:13:29;;;;;;;10.60;8.90;;;18.50;99.90;;;;;;5029899;28;20654;-82
2021/04/19 09:16:12;;;;;;;13.23;9.70;;;20.10;99.90;;;;;;5017579;28;20597;-86
2021/04/19 09:18:46;;;;;;;12.90;9.70;;;18.90;99.90;;;;;;5017397;28;20227;-80
2021/04/19 09:21:35;;;;;;;11.75;9.88;;;19.60;99.90;;;;;;5020365;28;20228;-81
2021/04/19 09:24:04;;;;;;;14.23;10.00;;;20.20;97.90;;;;;;5026048;28;20338;-80
2021/04/19 09:26:50;;;;;;;12.45;9.65;;;17.60;99.90;;;;;;5017287;28;20292;-80
2021/04/19 09:29:46;;;;;;;11.65;9.75;;;19.60;99.90;;;;;;5006437;28;20228;-80
2021/04/19 09:32:24;;;;;;;13.27;9.75;;;21.00;99.90;;;;;;5019884;28;20271;-80
2021/04/19 09:34:53;;;;;;;12.48;10.32;;;21.50;95.20;;;;;;5015387;28;20197;-81
2021/04/19 09:37:22;;;;;;;15.15;9.68;;;19.30;95.00;;;;;;5028132;28;20232;-80
2021/04/19 09:39:51;;;;;;;12.52;9.95;;;19.60;97.80;;;;;;5017800;28;20884;-81
2021/04/19 09:42:19;;;;;;;12.18;10.10;;;19.60;97.60;;;;;;5023125;28;20200;-80
2021/04/19 09:44:55;;;;;;;12.50;10.50;;;19.50;97.20;;;;;;5027120;28;20228;-80
2021/04/19 09:47:52;;;;;;;11.90;9.85;;;19.30;98.50;;;;;;5016606;28;20207;-81
2021/04/19 09:50:22;;;;;;;10.80;9.57;;;19.10;98.20;;;;;;5008967;28;20197;-80
2021/04/19 09:52:57;;;;;;;10.82;9.13;;;19.50;98.40;;;;;;5018139;28;20224;-81
2021/04/19 09:55:24;;;;;;;16.13;10.23;;;21.00;96.70;;;;;;5011825;28;20282;-80
2021/04/19 09:57:51;;;;;;;10.63;9.50;;;19.70;95.20;;;;;;5021885;28;20736;-81
2021/04/19 10:00:25;;;;;;;12.57;9.70;;;20.50;95.00;;;;;;5012590;28;20288;-81
2021/04/19 10:02:52;;;;;;;13.00;10.07;;;19.70;96.00;;;;;;5017141;28;20204;-85
2021/04/19 10:05:19;;;;;;;12.13;9.50;;;20.70;94.50;;;;;;5020666;28;20690;-85
2021/04/19 10:07:51;;;;;;;11.80;9.05;;;21.70;95.70;;;;;;5015535;28;20644;-86
2021/04/19 10:10:21;;;;;;;11.30;10.20;;;21.90;93.20;;;;;;5020583;28;20592;-86
2021/04/19 10:12:48;;;;;;;13.23;9.88;;;18.80;97.20;;;;;;5015950;28;20231;-79
2021/04/19 10:15:21;;;;;;;12.05;9.88;;;19.90;96.90;;;;;;5006271;28;20204;-79
2021/04/19 10:17:48;;;;;;;13.10;9.93;;;19.60;94.20;;;;;;5018548;28;20244;-79
2021/04/19 10:20:18;;;;;;;10.75;9.38;;;19.10;96.60;;;;;;5011918;28;20204;-79
2021/04/19 10:22:46;;;;;;;11.98;9.02;;;20.40;94.10;;;;;;5014071;28;20283;-79
2021/04/19 10:25:13;;;;;;;14.93;11.13;;;21.70;95.80;;;;;;5009798;28;20247;-80
2021/04/19 10:27:40;;;;;;;12.18;9.68;;;20.60;92.90;;;;;;5016758;28;20291;-80
2021/04/19 10:30:14;;;;;;;12.68;10.35;;;21.70;94.10;;;;;;5020631;28;20684;-79
2021/04/19 10:32:43;;;;;;;12.20;9.93;;;21.00;93.90;;;;;;5014779;28;20299;-80
2021/04/19 10:35:29;;;;;;;12.30;10.07;;;22.00;95.50;;;;;;5012079;28;20204;-79
2021/04/19 10:37:55;;;;;;;12.57;10.48;;;20.10;90.30;;;;;;5023025;28;20740;-79
2021/04/19 10:40:22;;;;;;;13.65;10.80;;;19.80;92.60;;;;;;5017721;28;20204;-79
2021/04/19 10:42:48;;;;;;;12.95;10.55;;;21.70;91.00;;;;;;5026819;28;20582;-78
2021/04/19 10:45:16;;;;;;;19.08;9.98;;;22.10;90.00;;;;;;5014957;28;20283;-79
2021/04/19 10:47:43;;;;;;;10.88;9.77;;;22.50;90.90;;;;;;5022101;28;20346;-79
2021/04/19 10:50:11;;;;;;;11.38;10.20;;;23.60;86.10;;;;;;5012408;28;20292;-79
2021/04/19 10:52:38;;;;;;;13.20;10.75;;;22.30;90.70;;;;;;5017173;28;20248;-79
2021/04/19 10:55:07;;;;;;;11.35;9.80;;;23.30;88.90;;;;;;5023210;28;20203;-79
2021/04/19 10:57:34;;;;;;;12.85;10.65;;;23.70;89.80;;;;;;5020221;28;20254;-80
2021/04/19 11:00:03;;;;;;;11.60;10.40;;;22.80;84.50;;;;;;5022784;28;20244;-78
2021/04/19 11:02:31;;;;;;;11.23;10.13;;;21.20;84.90;;;;;;5011492;28;20342;-79
2021/04/19 11:04:59;;;;;;;13.25;11.05;;;19.40;90.60;;;;;;5018539;28;20552;-79
2021/04/19 11:07:27;;;;;;;13.68;10.63;;;20.30;90.80;;;;;;5020827;28;20295;-79
2021/04/19 11:10:16;;;;;;;10.60;9.50;;;19.40;91.20;;;;;;5022299;28;20224;-78
2021/04/19 11:12:54;;;;;;;11.98;10.75;;;19.60;91.20;;;;;;5004765;28;20244;-78
2021/04/19 11:15:27;;;;;;;11.90;9.40;;;18.00;92.60;;;;;;5019491;28;20201;-82
2021/04/19 11:17:53;;;;;;;15.73;10.35;;;20.50;94.20;;;;;;5017175;28;20252;-81
2021/04/19 11:20:23;;;;;;;11.55;9.85;;;19.50;89.60;;;;;;5004335;28;20663;-83
2021/04/19 11:22:51;;;;;;;12.88;10.23;;;20.40;90.20;;;;;;5015273;28;20256;-80
2021/04/19 11:25:19;;;;;;;10.98;9.85;;;19.40;91.70;;;;;;5013108;28;20235;-79
2021/04/19 11:27:47;;;;;;;10.35;9.25;;;19.40;90.40;;;;;;5018623;28;20201;-80
2021/04/19 11:30:27;;;;;;;12.80;9.68;;;20.80;92.10;;;;;;5012957;28;20237;-80
2021/04/19 11:33:05;;;;;;;12.77;9.13;;;22.00;87.40;;;;;;5023174;28;20220;-80
2021/04/19 11:35:41;;;;;;;11.70;8.75;;;22.60;82.60;;;;;;5012211;28;20292;-80
2021/04/19 11:38:09;;;;;;;11.88;10.27;;;22.10;87.60;;;;;;5023641;28;20196;-80
2021/04/19 11:40:39;;;;;;;10.43;9.43;;;21.50;82.90;;;;;;5025909;28;20225;-82
2021/04/19 11:43:24;;;;;;;9.95;8.77;;;20.80;89.20;;;;;;5013311;28;20200;-81
2021/04/19 11:46:02;;;;;;;9.85;8.30;;;20.20;88.10;;;;;;5013736;28;20292;-81
2021/04/19 11:48:29;;;;;;;12.70;9.80;;;22.50;84.90;;;;;;5020706;28;20202;-79
2021/04/19 11:50:58;;;;;;;10.95;8.57;;;22.00;82.70;;;;;;5014323;28;20202;-80
2021/04/19 11:53:26;;;;;;;11.05;9.27;;;19.50;85.90;;;;;;5019287;28;20263;-79
2021/04/19 11:55:54;;;;;;;10.93;9.00;;;19.90;86.70;;;;;;5019490;28;20251;-80
2021/04/19 11:58:25;;;;;;;12.75;9.10;;;19.90;87.70;;;;;;5012694;28;20212;-79
2021/04/19 12:00:54;;;;;;;11.60;9.77;;;21.50;84.60;;;;;;5011731;28;20688;-79
2021/04/19 12:03:21;;;;;;;12.10;9.48;;;21.40;83.70;;;;;;5013398;28;20255;-79
2021/04/19 12:05:51;;;;;;;10.43;9.40;;;22.20;84.60;;;;;;5029578;28;20640;-79
2021/04/19 12:08:18;;;;;;;10.82;8.38;;;22.90;81.30;;;;;;5020120;28;20288;-79
2021/04/19 12:10:45;;;;;;;9.30;8.32;;;22.10;81.20;;;;;;5018723;28;20196;-79
2021/04/19 12:13:14;;;;;;;8.20;7.20;;;22.00;81.10;;;;;;5020365;28;20831;-79
2021/04/19 12:15:41;;;;;;;9.43;7.65;;;21.20;81.70;;;;;;5014740;28;20451;-75
2021/04/19 12:18:10;;;;;;;9.70;8.70;;;21.10;81.00;;;;;;5016297;28;20288;-78
2021/04/19 12:20:37;;;;;;;9.25;8.32;;;21.10;83.00;;;;;;5016966;28;20201;-78
2021/04/19 12:23:04;;;;;;;9.98;8.30;;;21.80;81.30;;;;;;5020763;28;20295;-75
2021/04/19 12:25:34;;;;;;;9.65;8.02;;;21.50;81.80;;;;;;5019814;28;20292;-75
2021/04/19 12:28:00;;;;;;;9.40;7.65;;;19.90;88.50;;;;;;5027105;28;20576;-75
2021/04/19 12:30:28;;;;;;;9.18;7.93;;;20.40;83.90;;;;;;5017494;28;20202;-78
2021/04/19 12:32:56;;;;;;;9.88;8.55;;;20.40;83.10;;;;;;5025598;28;20365;-79
2021/04/19 12:35:22;;;;;;;9.40;8.35;;;19.60;84.50;;;;;;5022913;28;20209;-79
2021/04/19 12:37:49;;;;;;;9.35;8.18;;;19.00;85.70;;;;;;5012895;28;20215;-78
2021/04/19 12:40:17;;;;;;;10.50;8.95;;;19.10;86.20;;;;;;5016273;28;20201;-78
2021/04/19 12:42:44;;;;;;;9.02;8.13;;;18.90;88.20;;;;;;5015919;28;20204;-78
2021/04/19 12:45:11;;;;;;;9.13;8.02;;;20.10;84.00;;;;;;5022667;28;20722;-79
2021/04/19 12:47:38;;;;;;;10.63;7.68;;;21.00;85.80;;;;;;5022766;28;20200;-75
2021/04/19 12:50:05;;;;;;;10.43;8.57;;;22.50;83.40;;;;;;5014836;28;20745;-74
2021/04/19 12:52:32;;;;;;;9.95;7.93;;;21.20;81.20;;;;;;5012749;28;20414;-78
2021/04/19 12:54:58;;;;;;;8.98;8.07;;;19.40;85.10;;;;;;5029038;28;20275;-78
2021/04/19 12:57:25;;;;;;;10.07;8.23;;;19.30;85.10;;;;;;5013173;28;20228;-78
2021/04/19 12:59:52;;;;;;;9.45;7.53;;;20.60;83.80;;;;;;5024856;28;20200;-78
2021/04/19 13:02:19;;;;;;;10.85;9.05;;;20.30;88.00;;;;;;5017469;28;20700;-78
2021/04/19 13:04:45;;;;;;;11.88;8.13;;;19.90;84.40;;;;;;5018717;28;20205;-79